Share

Saint Leonard, New Brunswick

MesoWest Van Buren ME US ME-CAR_Meso (MVANM1) Elev 458 ft | 47.17 °N, 67.94 °W | Change Station

Current weather conditions updated 45 minutes ago

Overcast
Overcast
34 °F
Feels Like 34 °F
N
0
Wind Variable Wind from North
Gusts 9.0 mph
Sunrise 6:36 AM
Sunset 8:25 PM
Moon Waning Gibbous

Today is forecast to be nearly the same temperature as yesterday.

Pressure 30.14 in
Visibility 10.0 miles
Clouds Mostly Cloudy 5500 ft
Overcast 7000 ft
Windchill 34 °F
Dew Point 32 °F
Humidity 91%
Rainfall -9999.00 in
Snow Depth Not available.
UV 0 out of 16
Pollen Not available.
Air Quality Not available.
Flu Activity Not available.
METAR KCAR 190454Z AUTO 22004KT 10SM BKN055 OVC070 03/M04 A3011 RMK AO2 SLP205 T00331044 400781033

More Conditions Fewer Conditions

Pressure 30.14 in
Visibility 10.0 miles
Clouds Mostly Cloudy 5500 ft
Overcast 7000 ft
Windchill 34 °F
Dew Point 32 °F
Humidity 91%
Rainfall -9999.00 in
Snow Depth Not available.
UV 0 out of 16
Pollen Not available.
Air Quality Not available.
Flu Activity Not available.
METAR KCAR 190454Z AUTO 22004KT 10SM BKN055 OVC070 03/M04 A3011 RMK AO2 SLP205 T00331044 400781033

More Conditions Fewer Conditions

Nowcast |

Western Half of Restigouche County

×

10-Day Weather Forecast

Almanac

Astronomy

Apr. 19, 2014 Rise Set
Actual Time 6:36 AM ADT 8:25 PM ADT
Civil Twilight 6:03 AM ADT 8:58 PM ADT
Nautical Twilight 5:23 AM ADT 9:38 PM ADT
Astronomical Twilight 4:40 AM ADT 10:22 PM ADT
Moon 12:15 AM ADT 9:41 AM ADT
Length of Visible Light 14h 54m
Length of Day
13h 49m
Tomorrow will be 3m 11s longer.
Waning Gibbous, 82% of the Moon is Illuminated
Today
Waning Gibbous
Apr 22
Last Quarter
Apr 29
New
May 6
First Quarter
May 14
Full

Yesterday's Extremes

Country Highs Country Lows

Community

  • Sunset Silhouettes
    Sunset Silhouettes
  • FL sunset Perico Isle
    FL sunset Perico Isle
  • Cloudy spring view
    Cloudy spring view
  • Old barn
    Old barn
  • What's for Lunch?
    What's for Lunch?

WunderPhotos

Upload Photos

1,702,650 photos uploaded!

WunderBlogs® & News

Nearby

Snow Depth

Not available.

Coastal Water Temperatures

Place Temperature
No Stations Reporting

Earthquake Activity

City Distance Mag. Time & Date
No recent earthquake activity has been reported nearby.
Minimum magnitude displayed is 2.5.

Nearby Weather Stations

Station Location Temp. Windchill Dew Point Humidity Wind Precip. Elev Updated Type
MesoWest Van Buren , Van Buren, ME 34 °F 34 °F 32 °F 91% North  at  0 mph 0.00 in / hr 458 ft 1:04 AM EDT MADIS
N7GLR, Grand Isle [Lille], ME 36.5 °F 36 °F 32 °F 85% NNE  at  2.0 mph 0.00 in / hr 711 ft 1:30 AM EDT Normal
Crown Weather Services, Caribou, ME 37.0 °F 32 °F 26 °F 63% WNW  at  6.0 mph 0.00 in / hr 552 ft 1:49 AM EDT Rapid Fire

Show More Stations Show Fewer Stations

What do you think?

We're not finished. Please let us know what you like, what you don't like, and what you are still missing.